sensor_id;sensor_type;location;lat;lon;timestamp;temperature;humidity
65568;DHT22;52211;50.154;8.682;2022-12-18T00:00:28;-3.00;65.80
65568;DHT22;52211;50.154;8.682;2022-12-18T00:02:57;-3.00;65.80
65568;DHT22;52211;50.154;8.682;2022-12-18T00:05:27;-3.00;65.80
65568;DHT22;52211;50.154;8.682;2022-12-18T00:07:55;-3.00;65.70
65568;DHT22;52211;50.154;8.682;2022-12-18T00:10:22;-3.00;65.60
65568;DHT22;52211;50.154;8.682;2022-12-18T00:12:51;-3.00;65.60
65568;DHT22;52211;50.154;8.682;2022-12-18T00:15:18;-3.00;65.60
65568;DHT22;52211;50.154;8.682;2022-12-18T00:17:50;-3.10;65.50
65568;DHT22;52211;50.154;8.682;2022-12-18T00:20:19;-3.10;65.50
65568;DHT22;52211;50.154;8.682;2022-12-18T00:22:52;-3.20;65.40
65568;DHT22;52211;50.154;8.682;2022-12-18T00:25:24;-3.20;65.60
65568;DHT22;52211;50.154;8.682;2022-12-18T00:27:53;-3.30;65.50
65568;DHT22;52211;50.154;8.682;2022-12-18T00:30:20;-3.30;65.60
65568;DHT22;52211;50.154;8.682;2022-12-18T00:32:47;-3.30;65.60
65568;DHT22;52211;50.154;8.682;2022-12-18T00:35:14;-3.30;65.40
65568;DHT22;52211;50.154;8.682;2022-12-18T00:37:41;-3.40;65.00
65568;DHT22;52211;50.154;8.682;2022-12-18T00:40:11;-3.60;64.90
65568;DHT22;52211;50.154;8.682;2022-12-18T00:42:38;-3.70;65.00
65568;DHT22;52211;50.154;8.682;2022-12-18T00:45:29;-3.70;65.20
65568;DHT22;52211;50.154;8.682;2022-12-18T00:48:02;-3.80;65.30
65568;DHT22;52211;50.154;8.682;2022-12-18T00:50:30;-3.90;65.30
65568;DHT22;52211;50.154;8.682;2022-12-18T00:53:02;-3.90;65.30
65568;DHT22;52211;50.154;8.682;2022-12-18T00:55:39;-4.00;65.30
65568;DHT22;52211;50.154;8.682;2022-12-18T00:58:11;-4.10;65.40
65568;DHT22;52211;50.154;8.682;2022-12-18T01:00:43;-4.10;65.50
65568;DHT22;52211;50.154;8.682;2022-12-18T01:03:13;-4.20;65.60
65568;DHT22;52211;50.154;8.682;2022-12-18T01:05:43;-4.20;65.70
65568;DHT22;52211;50.154;8.682;2022-12-18T01:08:10;-4.20;65.70
65568;DHT22;52211;50.154;8.682;2022-12-18T01:10:43;-4.20;65.80
65568;DHT22;52211;50.154;8.682;2022-12-18T01:13:15;-4.20;65.90
65568;DHT22;52211;50.154;8.682;2022-12-18T01:15:49;-4.20;65.90
65568;DHT22;52211;50.154;8.682;2022-12-18T01:18:16;-4.20;66.00
65568;DHT22;52211;50.154;8.682;2022-12-18T01:20:48;-4.20;66.00
65568;DHT22;52211;50.154;8.682;2022-12-18T01:23:17;-4.10;66.10
65568;DHT22;52211;50.154;8.682;2022-12-18T01:25:49;-4.10;66.10
65568;DHT22;52211;50.154;8.682;2022-12-18T01:28:19;-4.10;66.10
65568;DHT22;52211;50.154;8.682;2022-12-18T01:30:46;-4.10;66.10
65568;DHT22;52211;50.154;8.682;2022-12-18T01:33:22;-4.00;66.00
65568;DHT22;52211;50.154;8.682;2022-12-18T01:35:49;-4.00;66.10
65568;DHT22;52211;50.154;8.682;2022-12-18T01:38:16;-4.00;66.10
65568;DHT22;52211;50.154;8.682;2022-12-18T01:40:46;-4.00;66.10
65568;DHT22;52211;50.154;8.682;2022-12-18T01:43:13;-4.00;66.10
65568;DHT22;52211;50.154;8.682;2022-12-18T01:45:44;-3.90;66.10
65568;DHT22;52211;50.154;8.682;2022-12-18T01:48:12;-3.90;66.10
65568;DHT22;52211;50.154;8.682;2022-12-18T01:50:42;-3.80;66.20
65568;DHT22;52211;50.154;8.682;2022-12-18T01:53:16;-3.80;66.20
65568;DHT22;52211;50.154;8.682;2022-12-18T01:55:56;-3.80;66.80
65568;DHT22;52211;50.154;8.682;2022-12-18T02:01:23;-3.70;66.20
65568;DHT22;52211;50.154;8.682;2022-12-18T02:03:53;-3.70;66.20
65568;DHT22;52211;50.154;8.682;2022-12-18T02:10:01;-3.60;66.30
65568;DHT22;52211;50.154;8.682;2022-12-18T02:18:19;-3.50;66.20
65568;DHT22;52211;50.154;8.682;2022-12-18T02:21:12;-3.50;66.20
65568;DHT22;52211;50.154;8.682;2022-12-18T02:26:47;-3.40;66.10
65568;DHT22;52211;50.154;8.682;2022-12-18T02:29:27;-3.40;66.10
65568;DHT22;52211;50.154;8.682;2022-12-18T02:32:02;-3.40;66.10
65568;DHT22;52211;50.154;8.682;2022-12-18T02:34:37;-3.30;66.10
65568;DHT22;52211;50.154;8.682;2022-12-18T02:37:11;-3.30;66.00
65568;DHT22;52211;50.154;8.682;2022-12-18T02:39:47;-3.30;65.90
65568;DHT22;52211;50.154;8.682;2022-12-18T02:42:22;-3.30;65.80
65568;DHT22;52211;50.154;8.682;2022-12-18T02:44:55;-3.30;65.80
65568;DHT22;52211;50.154;8.682;2022-12-18T02:47:28;-3.30;65.70
65568;DHT22;52211;50.154;8.682;2022-12-18T02:55:52;-3.40;65.80
65568;DHT22;52211;50.154;8.682;2022-12-18T03:06:57;-3.40;65.80
65568;DHT22;52211;50.154;8.682;2022-12-18T03:09:37;-3.40;65.80
65568;DHT22;52211;50.154;8.682;2022-12-18T03:12:16;-3.40;65.80
65568;DHT22;52211;50.154;8.682;2022-12-18T03:17:34;-3.50;65.60
65568;DHT22;52211;50.154;8.682;2022-12-18T03:20:10;-3.50;65.70
65568;DHT22;52211;50.154;8.682;2022-12-18T03:22:45;-3.50;65.60
65568;DHT22;52211;50.154;8.682;2022-12-18T03:25:18;-3.60;65.50
65568;DHT22;52211;50.154;8.682;2022-12-18T03:27:49;-3.60;65.50
65568;DHT22;52211;50.154;8.682;2022-12-18T03:30:19;-3.70;65.60
65568;DHT22;52211;50.154;8.682;2022-12-18T03:33:02;-3.70;65.60
65568;DHT22;52211;50.154;8.682;2022-12-18T03:35:42;-3.80;65.60
65568;DHT22;52211;50.154;8.682;2022-12-18T03:38:16;-3.80;65.60
65568;DHT22;52211;50.154;8.682;2022-12-18T03:41:06;-3.90;65.60
65568;DHT22;52211;50.154;8.682;2022-12-18T03:47:32;-3.90;65.60
65568;DHT22;52211;50.154;8.682;2022-12-18T03:51:10;-4.00;65.50
65568;DHT22;52211;50.154;8.682;2022-12-18T03:56:03;-4.10;65.40
65568;DHT22;52211;50.154;8.682;2022-12-18T03:58:38;-4.20;65.50
65568;DHT22;52211;50.154;8.682;2022-12-18T04:01:17;-4.20;65.60
65568;DHT22;52211;50.154;8.682;2022-12-18T04:03:49;-4.30;65.50
65568;DHT22;52211;50.154;8.682;2022-12-18T04:06:20;-4.30;65.60
65568;DHT22;52211;50.154;8.682;2022-12-18T04:08:47;-4.40;65.60
65568;DHT22;52211;50.154;8.682;2022-12-18T04:11:19;-4.40;65.60
65568;DHT22;52211;50.154;8.682;2022-12-18T04:13:49;-4.40;65.60
65568;DHT22;52211;50.154;8.682;2022-12-18T04:16:24;-4.40;65.70
65568;DHT22;52211;50.154;8.682;2022-12-18T04:19:00;-4.50;65.60
65568;DHT22;52211;50.154;8.682;2022-12-18T04:21:35;-4.50;65.50
65568;DHT22;52211;50.154;8.682;2022-12-18T04:24:07;-4.50;65.50
65568;DHT22;52211;50.154;8.682;2022-12-18T04:26:40;-4.60;65.50
65568;DHT22;52211;50.154;8.682;2022-12-18T04:29:15;-4.70;65.60
65568;DHT22;52211;50.154;8.682;2022-12-18T04:31:45;-4.70;65.60
65568;DHT22;52211;50.154;8.682;2022-12-18T04:34:12;-4.70;65.70
65568;DHT22;52211;50.154;8.682;2022-12-18T04:36:47;-4.70;65.80
65568;DHT22;52211;50.154;8.682;2022-12-18T04:39:18;-4.80;65.80
65568;DHT22;52211;50.154;8.682;2022-12-18T04:41:47;-4.70;65.80
65568;DHT22;52211;50.154;8.682;2022-12-18T04:44:17;-4.80;65.80
65568;DHT22;52211;50.154;8.682;2022-12-18T04:46:46;-4.80;65.80
65568;DHT22;52211;50.154;8.682;2022-12-18T04:49:13;-4.80;65.80
65568;DHT22;52211;50.154;8.682;2022-12-18T04:51:40;-4.80;65.70
65568;DHT22;52211;50.154;8.682;2022-12-18T04:54:09;-4.80;65.80
65568;DHT22;52211;50.154;8.682;2022-12-18T04:56:38;-4.80;65.60
65568;DHT22;52211;50.154;8.682;2022-12-18T04:59:07;-4.80;65.60
65568;DHT22;52211;50.154;8.682;2022-12-18T05:01:41;-4.90;65.60
65568;DHT22;52211;50.154;8.682;2022-12-18T05:04:10;-4.90;65.60
65568;DHT22;52211;50.154;8.682;2022-12-18T05:06:41;-4.90;65.60
65568;DHT22;52211;50.154;8.682;2022-12-18T05:09:08;-4.90;65.60
65568;DHT22;52211;50.154;8.682;2022-12-18T05:11:35;-5.00;65.50
65568;DHT22;52211;50.154;8.682;2022-12-18T05:14:02;-5.00;65.60
65568;DHT22;52211;50.154;8.682;2022-12-18T05:16:34;-5.00;65.60
65568;DHT22;52211;50.154;8.682;2022-12-18T05:19:05;-5.10;65.60
65568;DHT22;52211;50.154;8.682;2022-12-18T05:21:35;-5.10;65.60
65568;DHT22;52211;50.154;8.682;2022-12-18T05:24:06;-5.10;65.70
65568;DHT22;52211;50.154;8.682;2022-12-18T05:26:34;-5.10;65.70
65568;DHT22;52211;50.154;8.682;2022-12-18T05:29:01;-5.10;65.80
65568;DHT22;52211;50.154;8.682;2022-12-18T05:31:30;-5.10;65.80
65568;DHT22;52211;50.154;8.682;2022-12-18T05:34:06;-5.10;65.80
65568;DHT22;52211;50.154;8.682;2022-12-18T05:36:32;-5.10;65.80
65568;DHT22;52211;50.154;8.682;2022-12-18T05:39:02;-5.20;65.70
65568;DHT22;52211;50.154;8.682;2022-12-18T05:41:36;-5.20;65.70
65568;DHT22;52211;50.154;8.682;2022-12-18T05:44:03;-5.20;65.70
65568;DHT22;52211;50.154;8.682;2022-12-18T05:46:36;-5.20;65.80
65568;DHT22;52211;50.154;8.682;2022-12-18T05:49:08;-5.20;65.70
65568;DHT22;52211;50.154;8.682;2022-12-18T05:51:37;-5.10;65.80
65568;DHT22;52211;50.154;8.682;2022-12-18T05:54:04;-5.20;65.70
65568;DHT22;52211;50.154;8.682;2022-12-18T05:56:32;-5.20;65.70
65568;DHT22;52211;50.154;8.682;2022-12-18T05:59:01;-5.20;65.70
65568;DHT22;52211;50.154;8.682;2022-12-18T06:01:30;-5.20;65.70
65568;DHT22;52211;50.154;8.682;2022-12-18T06:04:02;-5.20;65.70
65568;DHT22;52211;50.154;8.682;2022-12-18T06:06:32;-5.20;65.70
65568;DHT22;52211;50.154;8.682;2022-12-18T06:09:01;-5.20;65.70
65568;DHT22;52211;50.154;8.682;2022-12-18T06:11:30;-5.20;65.80
65568;DHT22;52211;50.154;8.682;2022-12-18T06:14:02;-5.20;65.70
65568;DHT22;52211;50.154;8.682;2022-12-18T06:16:31;-5.10;65.80
65568;DHT22;52211;50.154;8.682;2022-12-18T06:19:02;-5.20;65.60
65568;DHT22;52211;50.154;8.682;2022-12-18T06:21:33;-5.20;65.60
65568;DHT22;52211;50.154;8.682;2022-12-18T06:24:01;-5.20;65.60
65568;DHT22;52211;50.154;8.682;2022-12-18T06:26:31;-5.20;65.60
65568;DHT22;52211;50.154;8.682;2022-12-18T06:29:03;-5.20;65.50
65568;DHT22;52211;50.154;8.682;2022-12-18T06:31:32;-5.20;65.50
65568;DHT22;52211;50.154;8.682;2022-12-18T06:34:02;-5.30;65.50
65568;DHT22;52211;50.154;8.682;2022-12-18T06:36:32;-5.30;65.50
65568;DHT22;52211;50.154;8.682;2022-12-18T06:38:59;-5.30;65.50
65568;DHT22;52211;50.154;8.682;2022-12-18T06:41:26;-5.30;65.50
65568;DHT22;52211;50.154;8.682;2022-12-18T06:43:56;-5.30;65.50
65568;DHT22;52211;50.154;8.682;2022-12-18T06:46:28;-5.30;65.60
65568;DHT22;52211;50.154;8.682;2022-12-18T06:48:57;-5.30;65.60
65568;DHT22;52211;50.154;8.682;2022-12-18T06:51:27;-5.40;65.50
65568;DHT22;52211;50.154;8.682;2022-12-18T06:53:56;-5.40;65.50
65568;DHT22;52211;50.154;8.682;2022-12-18T06:56:25;-5.40;65.50
65568;DHT22;52211;50.154;8.682;2022-12-18T06:58:56;-5.40;65.60
65568;DHT22;52211;50.154;8.682;2022-12-18T07:01:23;-5.40;65.50
65568;DHT22;52211;50.154;8.682;2022-12-18T07:03:55;-5.40;65.50
65568;DHT22;52211;50.154;8.682;2022-12-18T07:06:24;-5.40;65.50
65568;DHT22;52211;50.154;8.682;2022-12-18T07:08:54;-5.40;65.50
65568;DHT22;52211;50.154;8.682;2022-12-18T07:11:22;-5.40;65.50
65568;DHT22;52211;50.154;8.682;2022-12-18T07:13:49;-5.50;65.50
65568;DHT22;52211;50.154;8.682;2022-12-18T07:16:18;-5.50;65.50
65568;DHT22;52211;50.154;8.682;2022-12-18T07:18:52;-5.50;65.50
65568;DHT22;52211;50.154;8.682;2022-12-18T07:21:22;-5.50;65.50
65568;DHT22;52211;50.154;8.682;2022-12-18T07:23:50;-5.50;65.50
65568;DHT22;52211;50.154;8.682;2022-12-18T07:26:20;-5.50;65.40
65568;DHT22;52211;50.154;8.682;2022-12-18T07:28:54;-5.50;65.50
65568;DHT22;52211;50.154;8.682;2022-12-18T07:31:27;-5.50;65.50
65568;DHT22;52211;50.154;8.682;2022-12-18T07:33:56;-5.50;65.50
65568;DHT22;52211;50.154;8.682;2022-12-18T07:36:25;-5.60;65.50
65568;DHT22;52211;50.154;8.682;2022-12-18T07:38:56;-5.60;65.60
65568;DHT22;52211;50.154;8.682;2022-12-18T07:41:26;-5.60;65.60
65568;DHT22;52211;50.154;8.682;2022-12-18T07:43:53;-5.60;65.60
65568;DHT22;52211;50.154;8.682;2022-12-18T07:46:20;-5.60;65.60
65568;DHT22;52211;50.154;8.682;2022-12-18T07:48:49;-5.50;65.70
65568;DHT22;52211;50.154;8.682;2022-12-18T07:51:18;-5.50;65.70
65568;DHT22;52211;50.154;8.682;2022-12-18T07:53:45;-5.50;65.80
65568;DHT22;52211;50.154;8.682;2022-12-18T07:56:18;-5.50;65.80
65568;DHT22;52211;50.154;8.682;2022-12-18T07:58:56;-5.50;65.70
65568;DHT22;52211;50.154;8.682;2022-12-18T08:01:25;-5.50;65.80
65568;DHT22;52211;50.154;8.682;2022-12-18T08:03:57;-5.50;65.80
65568;DHT22;52211;50.154;8.682;2022-12-18T08:06:31;-5.50;65.90
65568;DHT22;52211;50.154;8.682;2022-12-18T08:08:58;-5.40;65.90
65568;DHT22;52211;50.154;8.682;2022-12-18T08:11:26;-5.40;65.90
65568;DHT22;52211;50.154;8.682;2022-12-18T08:14:00;-5.30;66.00
65568;DHT22;52211;50.154;8.682;2022-12-18T08:16:27;-5.30;65.90
65568;DHT22;52211;50.154;8.682;2022-12-18T08:18:54;-5.30;66.00
65568;DHT22;52211;50.154;8.682;2022-12-18T08:21:24;-5.20;66.00
65568;DHT22;52211;50.154;8.682;2022-12-18T08:23:59;-5.20;65.90
65568;DHT22;52211;50.154;8.682;2022-12-18T08:26:30;-5.10;66.00
65568;DHT22;52211;50.154;8.682;2022-12-18T08:28:59;-5.10;65.90
65568;DHT22;52211;50.154;8.682;2022-12-18T08:31:28;-5.10;65.90
65568;DHT22;52211;50.154;8.682;2022-12-18T08:34:01;-5.10;65.90
65568;DHT22;52211;50.154;8.682;2022-12-18T08:36:34;-5.00;65.90
65568;DHT22;52211;50.154;8.682;2022-12-18T08:39:04;-4.90;65.90
65568;DHT22;52211;50.154;8.682;2022-12-18T08:41:33;-4.90;65.90
65568;DHT22;52211;50.154;8.682;2022-12-18T08:44:00;-4.90;65.90
65568;DHT22;52211;50.154;8.682;2022-12-18T08:46:45;-4.90;65.80
65568;DHT22;52211;50.154;8.682;2022-12-18T08:49:12;-4.80;65.80
65568;DHT22;52211;50.154;8.682;2022-12-18T08:51:39;-4.80;65.80
65568;DHT22;52211;50.154;8.682;2022-12-18T08:54:13;-4.80;65.80
65568;DHT22;52211;50.154;8.682;2022-12-18T08:56:42;-4.70;65.90
65568;DHT22;52211;50.154;8.682;2022-12-18T08:59:14;-4.70;65.90
65568;DHT22;52211;50.154;8.682;2022-12-18T09:01:46;-4.70;65.90
65568;DHT22;52211;50.154;8.682;2022-12-18T09:04:17;-4.60;66.00
65568;DHT22;52211;50.154;8.682;2022-12-18T09:06:46;-4.50;66.10
65568;DHT22;52211;50.154;8.682;2022-12-18T09:09:13;-4.50;66.10
65568;DHT22;52211;50.154;8.682;2022-12-18T09:11:42;-4.40;66.10
65568;DHT22;52211;50.154;8.682;2022-12-18T09:14:16;-4.40;66.10
65568;DHT22;52211;50.154;8.682;2022-12-18T09:16:43;-4.30;66.20
65568;DHT22;52211;50.154;8.682;2022-12-18T09:19:13;-4.20;66.20
65568;DHT22;52211;50.154;8.682;2022-12-18T09:21:39;-4.20;66.10
65568;DHT22;52211;50.154;8.682;2022-12-18T09:24:14;-4.10;66.10
65568;DHT22;52211;50.154;8.682;2022-12-18T09:26:42;-4.10;66.10
65568;DHT22;52211;50.154;8.682;2022-12-18T09:29:15;-4.00;66.10
65568;DHT22;52211;50.154;8.682;2022-12-18T09:31:45;-4.00;66.00
65568;DHT22;52211;50.154;8.682;2022-12-18T09:34:14;-3.90;66.10
65568;DHT22;52211;50.154;8.682;2022-12-18T09:36:53;-3.80;66.20
65568;DHT22;52211;50.154;8.682;2022-12-18T09:39:27;-3.80;66.10
65568;DHT22;52211;50.154;8.682;2022-12-18T09:41:59;-3.70;66.20
65568;DHT22;52211;50.154;8.682;2022-12-18T09:44:35;-3.70;66.20
65568;DHT22;52211;50.154;8.682;2022-12-18T09:47:34;-3.60;66.30
65568;DHT22;52211;50.154;8.682;2022-12-18T09:50:28;-3.50;66.50
65568;DHT22;52211;50.154;8.682;2022-12-18T09:53:14;-3.40;66.60
65568;DHT22;52211;50.154;8.682;2022-12-18T09:55:49;-3.30;66.60
65568;DHT22;52211;50.154;8.682;2022-12-18T09:58:36;-3.10;66.70
65568;DHT22;52211;50.154;8.682;2022-12-18T10:01:14;-3.00;66.80
65568;DHT22;52211;50.154;8.682;2022-12-18T10:03:47;-2.90;66.60
65568;DHT22;52211;50.154;8.682;2022-12-18T10:12:21;-2.60;66.50
65568;DHT22;52211;50.154;8.682;2022-12-18T10:15:08;-2.40;66.40
65568;DHT22;52211;50.154;8.682;2022-12-18T10:21:10;-2.20;66.40
65568;DHT22;52211;50.154;8.682;2022-12-18T10:24:31;-2.10;66.40
65568;DHT22;52211;50.154;8.682;2022-12-18T10:27:14;-2.00;66.30
65568;DHT22;52211;50.154;8.682;2022-12-18T10:29:48;-1.90;66.40
65568;DHT22;52211;50.154;8.682;2022-12-18T10:32:18;-1.80;66.30
65568;DHT22;52211;50.154;8.682;2022-12-18T10:34:54;-1.70;66.30
65568;DHT22;52211;50.154;8.682;2022-12-18T10:37:28;-1.60;66.40
65568;DHT22;52211;50.154;8.682;2022-12-18T10:40:13;-1.50;66.40
65568;DHT22;52211;50.154;8.682;2022-12-18T10:43:03;-1.40;66.50
65568;DHT22;52211;50.154;8.682;2022-12-18T10:45:32;-1.30;66.40
65568;DHT22;52211;50.154;8.682;2022-12-18T10:48:01;-1.20;66.90
65568;DHT22;52211;50.154;8.682;2022-12-18T10:50:36;-1.10;66.20
65568;DHT22;52211;50.154;8.682;2022-12-18T10:53:28;-1.00;66.20
65568;DHT22;52211;50.154;8.682;2022-12-18T10:55:58;-0.90;66.10
65568;DHT22;52211;50.154;8.682;2022-12-18T11:03:41;-0.60;66.00
65568;DHT22;52211;50.154;8.682;2022-12-18T11:06:31;-0.50;66.00
65568;DHT22;52211;50.154;8.682;2022-12-18T11:09:19;-0.40;66.00
65568;DHT22;52211;50.154;8.682;2022-12-18T11:11:58;-0.30;65.60
65568;DHT22;52211;50.154;8.682;2022-12-18T11:14:41;-0.30;65.60
65568;DHT22;52211;50.154;8.682;2022-12-18T11:17:33;-0.30;65.60
65568;DHT22;52211;50.154;8.682;2022-12-18T11:20:18;-0.20;65.60
65568;DHT22;52211;50.154;8.682;2022-12-18T11:22:56;-0.20;65.80
65568;DHT22;52211;50.154;8.682;2022-12-18T11:25:31;-0.10;65.60
65568;DHT22;52211;50.154;8.682;2022-12-18T11:28:03;0.00;65.70
65568;DHT22;52211;50.154;8.682;2022-12-18T11:30:36;0.10;65.60
65568;DHT22;52211;50.154;8.682;2022-12-18T11:35:59;0.10;65.30
65568;DHT22;52211;50.154;8.682;2022-12-18T11:38:36;0.10;65.40
65568;DHT22;52211;50.154;8.682;2022-12-18T11:44:28;0.20;65.20
65568;DHT22;52211;50.154;8.682;2022-12-18T11:49:51;0.30;65.20
65568;DHT22;52211;50.154;8.682;2022-12-18T11:52:26;0.40;65.10
65568;DHT22;52211;50.154;8.682;2022-12-18T11:55:10;0.40;65.00
65568;DHT22;52211;50.154;8.682;2022-12-18T12:00:38;0.50;64.70
65568;DHT22;52211;50.154;8.682;2022-12-18T12:03:27;0.50;65.00
65568;DHT22;52211;50.154;8.682;2022-12-18T12:09:27;0.60;64.80
65568;DHT22;52211;50.154;8.682;2022-12-18T12:12:17;0.60;64.90
65568;DHT22;52211;50.154;8.682;2022-12-18T12:21:41;0.80;64.80
65568;DHT22;52211;50.154;8.682;2022-12-18T12:24:41;0.80;64.80
65568;DHT22;52211;50.154;8.682;2022-12-18T12:27:31;0.80;64.40
65568;DHT22;52211;50.154;8.682;2022-12-18T12:33:08;0.90;64.60
65568;DHT22;52211;50.154;8.682;2022-12-18T12:35:56;0.80;64.50
65568;DHT22;52211;50.154;8.682;2022-12-18T12:38:55;0.80;64.40
65568;DHT22;52211;50.154;8.682;2022-12-18T12:41:32;0.80;64.60
65568;DHT22;52211;50.154;8.682;2022-12-18T12:44:28;0.80;64.60
65568;DHT22;52211;50.154;8.682;2022-12-18T12:47:15;0.80;64.60
65568;DHT22;52211;50.154;8.682;2022-12-18T12:49:49;0.80;64.50
65568;DHT22;52211;50.154;8.682;2022-12-18T12:52:40;0.80;64.90
65568;DHT22;52211;50.154;8.682;2022-12-18T12:55:20;0.80;64.20
65568;DHT22;52211;50.154;8.682;2022-12-18T12:58:34;0.80;64.30
65568;DHT22;52211;50.154;8.682;2022-12-18T13:01:23;0.70;64.20
65568;DHT22;52211;50.154;8.682;2022-12-18T13:04:27;0.70;64.20
65568;DHT22;52211;50.154;8.682;2022-12-18T13:12:53;0.50;64.30
65568;DHT22;52211;50.154;8.682;2022-12-18T13:18:24;0.50;64.60
65568;DHT22;52211;50.154;8.682;2022-12-18T13:23:47;0.50;64.60
65568;DHT22;52211;50.154;8.682;2022-12-18T13:28:56;0.50;64.70
65568;DHT22;52211;50.154;8.682;2022-12-18T13:46:05;0.50;64.40
65568;DHT22;52211;50.154;8.682;2022-12-18T13:49:03;0.50;64.50
65568;DHT22;52211;50.154;8.682;2022-12-18T13:51:52;0.50;64.60
65568;DHT22;52211;50.154;8.682;2022-12-18T13:57:05;0.50;64.70
65568;DHT22;52211;50.154;8.682;2022-12-18T13:59:53;0.60;64.70
65568;DHT22;52211;50.154;8.682;2022-12-18T14:02:24;0.60;64.70
65568;DHT22;52211;50.154;8.682;2022-12-18T14:04:55;0.60;64.70
65568;DHT22;52211;50.154;8.682;2022-12-18T14:07:29;0.60;64.70
65568;DHT22;52211;50.154;8.682;2022-12-18T14:10:13;0.60;64.70
65568;DHT22;52211;50.154;8.682;2022-12-18T14:13:06;0.70;64.70
65568;DHT22;52211;50.154;8.682;2022-12-18T14:15:43;0.70;64.70
65568;DHT22;52211;50.154;8.682;2022-12-18T14:20:47;0.70;64.60
65568;DHT22;52211;50.154;8.682;2022-12-18T14:23:41;0.70;64.60
65568;DHT22;52211;50.154;8.682;2022-12-18T14:26:28;0.70;64.50
65568;DHT22;52211;50.154;8.682;2022-12-18T14:28:58;0.60;64.60
65568;DHT22;52211;50.154;8.682;2022-12-18T14:31:31;0.60;64.60
65568;DHT22;52211;50.154;8.682;2022-12-18T14:34:00;0.60;64.70
65568;DHT22;52211;50.154;8.682;2022-12-18T14:36:30;0.60;64.60
65568;DHT22;52211;50.154;8.682;2022-12-18T14:39:00;0.60;64.60
65568;DHT22;52211;50.154;8.682;2022-12-18T14:41:26;0.60;64.60
65568;DHT22;52211;50.154;8.682;2022-12-18T14:44:05;0.60;64.60
65568;DHT22;52211;50.154;8.682;2022-12-18T14:46:41;0.60;64.60
65568;DHT22;52211;50.154;8.682;2022-12-18T14:49:32;0.50;64.60
65568;DHT22;52211;50.154;8.682;2022-12-18T14:52:05;0.50;64.60
65568;DHT22;52211;50.154;8.682;2022-12-18T14:54:46;0.50;64.60
65568;DHT22;52211;50.154;8.682;2022-12-18T14:57:25;0.50;64.60
65568;DHT22;52211;50.154;8.682;2022-12-18T15:00:07;0.50;64.70
65568;DHT22;52211;50.154;8.682;2022-12-18T15:02:46;0.40;64.60
65568;DHT22;52211;50.154;8.682;2022-12-18T15:05:28;0.40;64.70
65568;DHT22;52211;50.154;8.682;2022-12-18T15:07:58;0.40;64.70
65568;DHT22;52211;50.154;8.682;2022-12-18T15:10:33;0.40;64.70
65568;DHT22;52211;50.154;8.682;2022-12-18T15:26:17;0.20;64.80
65568;DHT22;52211;50.154;8.682;2022-12-18T15:28:52;0.20;64.80
65568;DHT22;52211;50.154;8.682;2022-12-18T15:31:40;0.20;64.80
65568;DHT22;52211;50.154;8.682;2022-12-18T15:34:18;0.10;64.80
65568;DHT22;52211;50.154;8.682;2022-12-18T15:36:51;0.10;64.80
65568;DHT22;52211;50.154;8.682;2022-12-18T15:39:20;0.10;64.80
65568;DHT22;52211;50.154;8.682;2022-12-18T15:41:48;0.00;64.90
65568;DHT22;52211;50.154;8.682;2022-12-18T15:44:33;0.00;64.90
65568;DHT22;52211;50.154;8.682;2022-12-18T15:47:01;-0.10;64.90
65568;DHT22;52211;50.154;8.682;2022-12-18T15:49:34;-0.10;65.00
65568;DHT22;52211;50.154;8.682;2022-12-18T15:52:03;-0.10;65.00
65568;DHT22;52211;50.154;8.682;2022-12-18T15:54:32;-0.10;65.00
65568;DHT22;52211;50.154;8.682;2022-12-18T15:57:18;-0.20;65.00
65568;DHT22;52211;50.154;8.682;2022-12-18T15:59:52;-0.20;65.00
65568;DHT22;52211;50.154;8.682;2022-12-18T16:02:25;-0.30;65.00
65568;DHT22;52211;50.154;8.682;2022-12-18T16:04:54;-0.30;65.00
65568;DHT22;52211;50.154;8.682;2022-12-18T16:07:21;-0.30;65.10
65568;DHT22;52211;50.154;8.682;2022-12-18T16:09:54;-0.30;65.10
65568;DHT22;52211;50.154;8.682;2022-12-18T16:12:26;-0.30;65.10
65568;DHT22;52211;50.154;8.682;2022-12-18T16:14:55;-0.40;65.10
65568;DHT22;52211;50.154;8.682;2022-12-18T16:17:25;-0.30;65.20
65568;DHT22;52211;50.154;8.682;2022-12-18T16:19:56;-0.40;65.10
65568;DHT22;52211;50.154;8.682;2022-12-18T16:22:30;-0.40;65.20
65568;DHT22;52211;50.154;8.682;2022-12-18T16:25:02;-0.40;65.20
65568;DHT22;52211;50.154;8.682;2022-12-18T16:27:31;-0.40;65.20
65568;DHT22;52211;50.154;8.682;2022-12-18T16:29:58;-0.50;65.20
65568;DHT22;52211;50.154;8.682;2022-12-18T16:32:30;-0.50;65.20
65568;DHT22;52211;50.154;8.682;2022-12-18T16:35:02;-0.50;65.20
65568;DHT22;52211;50.154;8.682;2022-12-18T16:37:31;-0.50;65.20
65568;DHT22;52211;50.154;8.682;2022-12-18T16:40:02;-0.50;65.20
65568;DHT22;52211;50.154;8.682;2022-12-18T16:42:35;-0.50;65.30
65568;DHT22;52211;50.154;8.682;2022-12-18T16:45:13;-0.50;65.30
65568;DHT22;52211;50.154;8.682;2022-12-18T16:47:44;-0.50;65.40
65568;DHT22;52211;50.154;8.682;2022-12-18T16:50:13;-0.50;65.30
65568;DHT22;52211;50.154;8.682;2022-12-18T16:52:43;-0.50;65.30
65568;DHT22;52211;50.154;8.682;2022-12-18T16:55:16;-0.60;65.30
65568;DHT22;52211;50.154;8.682;2022-12-18T16:57:49;-0.50;65.40
65568;DHT22;52211;50.154;8.682;2022-12-18T17:00:23;-0.60;65.30
65568;DHT22;52211;50.154;8.682;2022-12-18T17:02:51;-0.60;65.40
65568;DHT22;52211;50.154;8.682;2022-12-18T17:05:22;-0.60;65.40
65568;DHT22;52211;50.154;8.682;2022-12-18T17:07:55;-0.60;65.40
65568;DHT22;52211;50.154;8.682;2022-12-18T17:10:25;-0.60;65.40
65568;DHT22;52211;50.154;8.682;2022-12-18T17:12:55;-0.60;65.40
65568;DHT22;52211;50.154;8.682;2022-12-18T17:15:25;-0.60;65.40
65568;DHT22;52211;50.154;8.682;2022-12-18T17:17:57;-0.60;65.40
65568;DHT22;52211;50.154;8.682;2022-12-18T17:20:24;-0.60;65.40
65568;DHT22;52211;50.154;8.682;2022-12-18T17:22:51;-0.60;65.40
65568;DHT22;52211;50.154;8.682;2022-12-18T17:25:18;-0.70;65.50
65568;DHT22;52211;50.154;8.682;2022-12-18T17:27:47;-0.70;65.40
65568;DHT22;52211;50.154;8.682;2022-12-18T17:30:16;-0.70;65.50
65568;DHT22;52211;50.154;8.682;2022-12-18T17:32:45;-0.70;65.50
65568;DHT22;52211;50.154;8.682;2022-12-18T17:35:16;-0.70;65.50
65568;DHT22;52211;50.154;8.682;2022-12-18T17:37:48;-0.60;65.60
65568;DHT22;52211;50.154;8.682;2022-12-18T17:40:17;-0.60;65.60
65568;DHT22;52211;50.154;8.682;2022-12-18T17:42:51;-0.60;65.60
65568;DHT22;52211;50.154;8.682;2022-12-18T17:45:21;-0.60;65.70
65568;DHT22;52211;50.154;8.682;2022-12-18T17:47:48;-0.60;65.60
65568;DHT22;52211;50.154;8.682;2022-12-18T17:50:25;-0.60;65.70
65568;DHT22;52211;50.154;8.682;2022-12-18T17:52:55;-0.60;65.60
65568;DHT22;52211;50.154;8.682;2022-12-18T17:55:23;-0.50;65.70
65568;DHT22;52211;50.154;8.682;2022-12-18T17:57:53;-0.60;65.60
65568;DHT22;52211;50.154;8.682;2022-12-18T18:00:20;-0.60;65.70
65568;DHT22;52211;50.154;8.682;2022-12-18T18:02:47;-0.60;65.60
65568;DHT22;52211;50.154;8.682;2022-12-18T18:05:16;-0.60;65.60
65568;DHT22;52211;50.154;8.682;2022-12-18T18:07:43;-0.60;65.60
65568;DHT22;52211;50.154;8.682;2022-12-18T18:10:10;-0.60;65.60
65568;DHT22;52211;50.154;8.682;2022-12-18T18:12:41;-0.50;65.80
65568;DHT22;52211;50.154;8.682;2022-12-18T18:15:28;-0.50;65.70
65568;DHT22;52211;50.154;8.682;2022-12-18T18:17:55;-0.50;65.70